createdAt,value
2019-05-02T00:02:24.113Z,80.17
2019-05-02T00:04:55.917Z,80.17
2019-05-02T00:07:25.031Z,80.17
2019-05-02T00:09:54.742Z,80.21
2019-05-02T00:12:25.593Z,80.26
2019-05-02T00:14:56.640Z,80.66
2019-05-02T00:17:27.546Z,80.21
2019-05-02T00:19:56.834Z,80.01
2019-05-02T00:22:26.114Z,80.24
2019-05-02T00:24:55.422Z,80.49
2019-05-02T00:27:24.725Z,80.45
2019-05-02T00:29:58.514Z,80.59
2019-05-02T00:32:25.042Z,80.58
2019-05-02T00:34:54.420Z,80.50
2019-05-02T00:37:24.638Z,80.46
2019-05-02T00:39:54.783Z,80.42
2019-05-02T00:42:24.222Z,80.44
2019-05-02T00:44:53.442Z,80.65
2019-05-02T00:47:42.342Z,80.73
2019-05-02T00:50:11.285Z,80.90
2019-05-02T00:52:41.451Z,80.74
2019-05-02T00:55:10.849Z,80.89
2019-05-02T00:57:40.147Z,80.96
2019-05-02T01:00:13.352Z,81.53
2019-05-02T01:02:47.182Z,81.39
2019-05-02T01:05:16.447Z,81.34
2019-05-02T01:07:45.765Z,80.97
2019-05-02T01:10:17.241Z,80.86
2019-05-02T01:12:46.269Z,80.82
2019-05-02T01:15:15.691Z,80.74
2019-05-02T01:17:45.011Z,80.76
2019-05-02T01:20:14.304Z,80.73
2019-05-02T01:22:47.246Z,80.81
2019-05-02T01:25:15.691Z,80.84
2019-05-02T01:28:03.466Z,80.75
2019-05-02T01:30:57.554Z,80.66
2019-05-02T01:33:56.805Z,80.81
2019-05-02T01:36:30.461Z,80.69
2019-05-02T01:39:02.884Z,80.34
2019-05-02T01:41:31.108Z,80.27
2019-05-02T01:44:01.640Z,80.45
2019-05-02T01:46:30.886Z,80.67
2019-05-02T01:49:00.186Z,80.54
2019-05-02T01:51:29.456Z,80.43
2019-05-02T01:53:58.763Z,80.50
2019-05-02T01:56:28.594Z,80.58
2019-05-02T01:58:59.003Z,80.75
2019-05-02T02:01:28.437Z,80.87
2019-05-02T02:03:57.682Z,80.88
2019-05-02T02:06:26.964Z,80.95
2019-05-02T02:08:56.222Z,80.86
2019-05-02T02:11:28.436Z,80.69
2019-05-02T02:13:56.643Z,80.56
2019-05-02T02:16:25.968Z,80.64
2019-05-02T02:19:05.404Z,80.78
2019-05-02T02:21:47.601Z,80.93
2019-05-02T02:24:25.121Z,81.09
2019-05-02T02:26:55.379Z,81.01
2019-05-02T02:29:24.798Z,80.85
2019-05-02T02:31:54.126Z,80.85
2019-05-02T02:34:29.107Z,81.23
2019-05-02T02:36:54.527Z,81.34
2019-05-02T02:39:23.837Z,81.67
2019-05-02T02:41:54.216Z,81.52
2019-05-02T02:44:41.983Z,80.94
2019-05-02T02:47:18.891Z,80.76
2019-05-02T02:49:42.387Z,80.90
2019-05-02T02:52:11.679Z,81.17
2019-05-02T02:54:43.200Z,81.10
2019-05-02T02:57:20.631Z,81.26
2019-05-02T02:59:42.978Z,81.60
2019-05-02T03:02:12.574Z,81.80
2019-05-02T03:04:44.164Z,81.66
2019-05-02T03:07:24.193Z,81.47
2019-05-02T03:09:44.100Z,81.59
2019-05-02T03:12:36.215Z,81.51
2019-05-02T03:15:03.868Z,81.90
2019-05-02T03:17:33.131Z,81.84
2019-05-02T03:20:03.910Z,81.77
2019-05-02T03:22:34.924Z,81.72
2019-05-02T03:25:04.667Z,81.96
2019-05-02T03:27:37.502Z,82.04
2019-05-02T03:30:05.122Z,82.27
2019-05-02T03:32:36.145Z,82.39
2019-05-02T03:35:05.535Z,82.67
2019-05-02T03:37:34.801Z,82.49
2019-05-02T03:40:04.625Z,82.43
2019-05-02T03:42:43.677Z,82.38
2019-05-02T03:45:05.572Z,82.47
2019-05-02T03:47:36.938Z,82.38
2019-05-02T03:50:09.458Z,82.29
2019-05-02T03:52:43.675Z,82.04
2019-05-02T03:55:08.891Z,82.03
2019-05-02T03:57:41.878Z,82.05
2019-05-02T04:00:13.564Z,82.38
2019-05-02T04:02:41.169Z,82.32
2019-05-02T04:05:10.689Z,82.30
2019-05-02T04:07:42.122Z,82.11
2019-05-02T04:10:19.649Z,82.11
2019-05-02T04:12:45.647Z,82.33
2019-05-02T04:15:15.062Z,82.24
2019-05-02T04:17:44.833Z,82.16
2019-05-02T04:20:14.163Z,82.15
2019-05-02T04:22:49.097Z,82.18
2019-05-02T04:25:14.883Z,81.93
2019-05-02T04:27:44.279Z,81.87
2019-05-02T04:30:14.194Z,81.45
2019-05-02T04:32:49.564Z,81.23
2019-05-02T04:35:14.864Z,81.46
2019-05-02T04:37:44.099Z,81.29
2019-05-02T04:40:13.372Z,81.30
2019-05-02T04:42:42.603Z,81.13
2019-05-02T04:45:25.232Z,81.05
2019-05-02T04:47:42.859Z,80.84
2019-05-02T04:50:18.144Z,80.73
2019-05-02T04:52:48.393Z,80.01
2019-05-02T04:55:22.936Z,79.34
2019-05-02T04:57:50.486Z,79.22
2019-05-02T05:00:20.490Z,79.33
2019-05-02T05:02:52.947Z,79.45
2019-05-02T05:05:25.644Z,79.28
2019-05-02T05:07:51.760Z,78.97
2019-05-02T05:10:21.053Z,78.63
2019-05-02T05:12:50.644Z,78.67
2019-05-02T05:15:35.826Z,78.63
2019-05-02T05:17:50.928Z,78.62
2019-05-02T05:20:20.297Z,79.50
2019-05-02T05:22:49.592Z,79.12
2019-05-02T05:25:24.396Z,78.73
2019-05-02T05:27:58.712Z,78.07
2019-05-02T05:30:24.763Z,77.59
2019-05-02T05:32:54.242Z,77.64
2019-05-02T05:35:23.551Z,77.42
2019-05-02T05:37:53.399Z,76.81
2019-05-02T05:40:27.567Z,77.00
2019-05-02T05:42:53.809Z,76.96
2019-05-02T05:45:23.306Z,77.09
2019-05-02T05:47:57.487Z,77.44
2019-05-02T05:50:23.623Z,76.14
2019-05-02T05:52:52.981Z,76.18
2019-05-02T05:55:24.430Z,76.20
2019-05-02T05:57:59.966Z,75.94
2019-05-02T06:00:24.305Z,75.29
2019-05-02T06:03:01.404Z,75.62
2019-05-02T06:05:24.735Z,74.84
2019-05-02T06:07:54.110Z,74.79
2019-05-02T06:10:23.350Z,74.88
2019-05-02T06:12:52.720Z,74.26
2019-05-02T06:15:21.962Z,73.89
2019-05-02T06:17:51.325Z,73.90
2019-05-02T06:20:20.613Z,73.81
2019-05-02T06:22:49.860Z,72.85
2019-05-02T06:25:32.818Z,72.32
2019-05-02T06:27:51.661Z,73.19
2019-05-02T06:30:21.043Z,72.30
2019-05-02T06:32:55.054Z,71.40
2019-05-02T06:35:22.399Z,72.04
2019-05-02T06:37:52.072Z,71.65
2019-05-02T06:40:21.291Z,71.88
2019-05-02T06:42:50.573Z,71.62
2019-05-02T06:45:20.012Z,70.13
2019-05-02T06:47:49.327Z,70.12
2019-05-02T06:50:18.672Z,70.29
2019-05-02T06:52:47.990Z,69.39
2019-05-02T06:55:17.311Z,69.00
2019-05-02T06:57:46.614Z,68.09
2019-05-02T07:00:16.782Z,67.55
2019-05-02T07:02:46.035Z,67.56
2019-05-02T07:05:15.469Z,66.83
2019-05-02T07:07:44.804Z,65.35
2019-05-02T07:10:14.390Z,66.50
2019-05-02T07:12:46.145Z,65.40
2019-05-02T07:15:48.284Z,64.99
2019-05-02T07:18:17.321Z,66.73
2019-05-02T07:20:46.593Z,65.21
2019-05-02T07:23:18.199Z,64.53
2019-05-02T07:25:47.149Z,62.42
2019-05-02T07:28:16.419Z,62.69
2019-05-02T07:30:45.726Z,63.54
2019-05-02T07:33:14.994Z,63.50
2019-05-02T07:35:44.266Z,61.62
2019-05-02T07:38:13.560Z,62.85
2019-05-02T07:40:42.868Z,62.71
2019-05-02T07:43:13.509Z,63.31
2019-05-02T07:45:45.227Z,61.99
2019-05-02T07:48:17.699Z,61.55
2019-05-02T07:50:46.572Z,62.45
2019-05-02T07:53:16.459Z,61.74
2019-05-02T07:55:48.917Z,61.63
2019-05-02T07:58:16.881Z,62.23
2019-05-02T08:00:46.186Z,62.10
2019-05-02T08:03:15.448Z,61.99
2019-05-02T08:05:45.126Z,61.74
2019-05-02T08:08:14.396Z,61.38
2019-05-02T08:10:43.664Z,60.52
2019-05-02T08:13:17.455Z,60.00
2019-05-02T08:15:45.590Z,61.19
2019-05-02T08:18:15.250Z,59.73
2019-05-02T08:20:44.550Z,59.54
2019-05-02T08:23:13.867Z,59.92
2019-05-02T08:25:45.418Z,59.49
2019-05-02T08:28:21.801Z,59.00
2019-05-02T08:30:53.837Z,58.14
2019-05-02T08:33:23.189Z,56.38
2019-05-02T08:35:52.447Z,56.44
2019-05-02T08:38:21.773Z,57.42
2019-05-02T08:40:51.109Z,57.17
2019-05-02T08:43:20.346Z,58.16
2019-05-02T08:45:49.632Z,58.88
2019-05-02T08:48:18.912Z,60.37
2019-05-02T08:50:48.339Z,60.62
2019-05-02T08:53:19.676Z,60.83
2019-05-02T08:55:48.634Z,58.94
2019-05-02T08:58:17.934Z,57.52
2019-05-02T09:01:13.247Z,58.53
2019-05-02T09:03:54.591Z,58.97
2019-05-02T09:06:10.435Z,58.42
2019-05-02T09:08:39.724Z,57.89
2019-05-02T09:11:14.199Z,57.56
2019-05-02T09:13:42.054Z,56.77
2019-05-02T09:16:12.059Z,56.89
2019-05-02T09:18:50.575Z,56.49
2019-05-02T09:21:12.600Z,57.71
2019-05-02T09:23:43.894Z,56.92
2019-05-02T09:26:12.882Z,57.22
2019-05-02T09:28:42.349Z,56.94
2019-05-02T09:31:13.216Z,57.20
2019-05-02T09:33:46.792Z,57.37
2019-05-02T09:36:13.540Z,56.83
2019-05-02T09:38:42.840Z,57.00
2019-05-02T09:41:18.770Z,56.17
2019-05-02T09:43:43.210Z,55.53
2019-05-02T09:46:16.508Z,56.50
2019-05-02T09:48:43.613Z,55.97
2019-05-02T09:51:17.434Z,54.76
2019-05-02T09:53:43.990Z,55.57
2019-05-02T09:56:13.421Z,55.51
2019-05-02T09:58:44.251Z,54.35
2019-05-02T10:01:35.538Z,54.41
2019-05-02T10:04:05.302Z,55.05
2019-05-02T10:06:34.527Z,54.83
2019-05-02T10:09:06.030Z,53.89
2019-05-02T10:11:35.368Z,52.71
2019-05-02T10:14:05.317Z,53.05
2019-05-02T10:16:34.696Z,52.89
2019-05-02T10:19:09.245Z,52.39
2019-05-02T10:21:35.114Z,52.79
2019-05-02T10:24:04.497Z,53.89
2019-05-02T10:26:33.743Z,52.84
2019-05-02T10:29:03.053Z,52.42
2019-05-02T10:31:37.321Z,51.01
2019-05-02T10:34:03.463Z,49.77
2019-05-02T10:36:32.698Z,48.73
2019-05-02T10:39:02.056Z,48.82
2019-05-02T10:41:53.448Z,49.65
2019-05-02T10:44:22.819Z,49.58
2019-05-02T10:46:56.761Z,49.99
2019-05-02T10:49:33.952Z,49.25
2019-05-02T10:52:03.304Z,48.96
2019-05-02T10:54:36.436Z,49.78
2019-05-02T10:57:03.570Z,47.19
2019-05-02T10:59:32.949Z,47.97
2019-05-02T11:02:36.281Z,48.76
2019-05-02T11:05:12.012Z,48.71
2019-05-02T11:07:41.988Z,46.36
2019-05-02T11:10:12.820Z,46.33
2019-05-02T11:13:01.900Z,47.39
2019-05-02T11:15:59.155Z,45.67
2019-05-02T11:18:40.164Z,46.57
2019-05-02T11:21:06.765Z,48.06
2019-05-02T11:23:32.848Z,46.85
2019-05-02T11:26:02.349Z,47.00
2019-05-02T11:28:32.363Z,47.99
2019-05-02T11:31:06.440Z,47.64
2019-05-02T11:33:32.917Z,46.06
2019-05-02T11:36:02.620Z,45.88
2019-05-02T11:38:32.472Z,45.39
2019-05-02T11:41:02.766Z,44.79
2019-05-02T11:43:32.666Z,45.23
2019-05-02T11:46:07.091Z,45.41
2019-05-02T11:48:33.079Z,45.21
2019-05-02T11:51:02.758Z,45.54
2019-05-02T11:53:32.655Z,44.37
2019-05-02T11:56:03.675Z,44.76
2019-05-02T11:58:33.197Z,45.21
2019-05-02T12:01:05.278Z,45.55
2019-05-02T12:03:38.348Z,45.49
2019-05-02T12:06:12.231Z,46.07
2019-05-02T12:08:39.514Z,46.25
2019-05-02T12:11:15.970Z,45.74
2019-05-02T12:13:42.667Z,45.23
2019-05-02T12:16:14.797Z,44.70
2019-05-02T12:18:44.297Z,43.46
2019-05-02T12:21:13.774Z,43.32
2019-05-02T12:23:43.056Z,41.24
2019-05-02T12:26:12.468Z,41.50
2019-05-02T12:28:42.966Z,40.31
2019-05-02T12:31:26.600Z,42.01
2019-05-02T12:33:56.426Z,39.91
2019-05-02T12:36:25.712Z,39.54
2019-05-02T12:38:55.026Z,41.71
2019-05-02T12:41:25.308Z,42.28
2019-05-02T12:43:54.894Z,43.66
2019-05-02T12:46:24.315Z,43.82
2019-05-02T12:48:53.684Z,44.20
2019-05-02T12:51:22.917Z,42.69
2019-05-02T12:53:52.985Z,41.86
2019-05-02T12:56:23.018Z,42.18
2019-05-02T12:58:53.071Z,40.94
2019-05-02T13:01:22.614Z,41.50
2019-05-02T13:04:13.692Z,41.04
2019-05-02T13:06:43.034Z,40.77
2019-05-02T13:09:13.094Z,41.09
2019-05-02T13:12:19.848Z,40.46
2019-05-02T13:14:49.287Z,41.04
2019-05-02T13:17:18.545Z,42.46
2019-05-02T13:19:56.235Z,43.61
2019-05-02T13:22:41.962Z,43.45
2019-05-02T13:25:14.624Z,45.13
2019-05-02T13:27:47.962Z,44.87
2019-05-02T13:30:41.011Z,45.03
2019-05-02T13:33:05.003Z,45.24
2019-05-02T13:35:43.984Z,46.30
2019-05-02T13:38:14.882Z,46.13
2019-05-02T13:40:45.148Z,46.62
2019-05-02T13:43:14.800Z,46.03
2019-05-02T13:46:09.750Z,47.51
2019-05-02T13:48:39.401Z,49.82
2019-05-02T13:51:08.697Z,52.29
2019-05-02T13:53:47.016Z,54.55
2019-05-02T13:56:46.384Z,55.99
2019-05-02T13:59:16.322Z,58.71
2019-05-02T14:01:47.572Z,62.78
2019-05-02T14:04:16.894Z,61.99
2019-05-02T14:06:46.424Z,63.55
2019-05-02T14:09:37.632Z,65.50
2019-05-02T14:12:32.146Z,63.71
2019-05-02T14:15:03.001Z,64.25
2019-05-02T14:17:32.763Z,65.70
2019-05-02T14:20:10.741Z,65.92
2019-05-02T14:22:33.126Z,66.85
2019-05-02T14:25:02.442Z,66.52
2019-05-02T14:27:32.182Z,65.75
2019-05-02T14:30:02.426Z,66.56
2019-05-02T14:32:32.906Z,66.79
2019-05-02T14:35:28.330Z,65.77
2019-05-02T14:38:13.940Z,64.16
2019-05-02T14:40:54.838Z,66.24
2019-05-02T14:43:44.512Z,62.79
2019-05-02T14:46:13.019Z,63.84
2019-05-02T14:48:45.236Z,62.80
2019-05-02T14:51:16.569Z,60.27
2019-05-02T14:53:44.950Z,59.46
2019-05-02T14:56:19.815Z,57.79
2019-05-02T14:58:49.196Z,57.61
2019-05-02T15:01:22.624Z,59.26
2019-05-02T15:03:49.753Z,59.34
2019-05-02T15:06:19.022Z,58.15
2019-05-02T15:08:48.416Z,58.41
2019-05-02T15:11:17.729Z,60.15
2019-05-02T15:13:47.020Z,60.61
2019-05-02T15:16:17.765Z,60.62
2019-05-02T15:18:52.063Z,61.47
2019-05-02T15:21:22.799Z,62.05
2019-05-02T15:23:54.224Z,64.20
2019-05-02T15:26:26.258Z,65.76
2019-05-02T15:28:54.352Z,66.06
2019-05-02T15:31:31.600Z,67.53
2019-05-02T15:34:06.801Z,69.17
2019-05-02T15:36:37.121Z,70.60
2019-05-02T15:41:44.925Z,84.50
2019-05-02T15:44:12.756Z,85.91
2019-05-02T15:46:42.487Z,86.28
2019-05-02T15:49:12.360Z,86.07
2019-05-02T15:51:43.658Z,85.54
2019-05-02T15:54:13.070Z,84.68
2019-05-02T15:57:00.316Z,84.85
2019-05-02T15:59:46.197Z,84.46
2019-05-02T16:02:17.702Z,84.54
2019-05-02T16:04:47.823Z,84.49
2019-05-02T16:07:17.139Z,83.68
2019-05-02T16:09:46.443Z,83.25
2019-05-02T16:12:15.808Z,82.58
2019-05-02T16:14:45.173Z,82.18
2019-05-02T16:17:17.641Z,80.71
2019-05-02T16:19:53.124Z,79.18
2019-05-02T16:22:23.633Z,77.41
2019-05-02T16:24:53.478Z,77.39
2019-05-02T16:27:42.147Z,76.43
2019-05-02T16:30:13.402Z,76.60
2019-05-02T16:32:46.539Z,76.95
2019-05-02T16:35:17.554Z,77.00
2019-05-02T16:37:51.615Z,75.96
2019-05-02T16:40:22.248Z,76.53
2019-05-02T16:42:49.286Z,75.63
2019-05-02T16:45:19.486Z,77.16
2019-05-02T16:47:49.622Z,78.50
2019-05-02T16:50:22.731Z,78.03
2019-05-02T16:52:53.080Z,77.49
2019-05-02T16:55:26.638Z,77.17
2019-05-02T16:57:56.816Z,77.50
2019-05-02T17:00:26.550Z,78.15
2019-05-02T17:02:55.876Z,78.38
2019-05-02T17:05:25.268Z,76.44
2019-05-02T17:08:18.607Z,76.87
2019-05-02T17:10:59.371Z,77.29
2019-05-02T17:13:34.219Z,76.27
2019-05-02T17:16:06.883Z,76.78
2019-05-02T17:18:32.626Z,77.31
2019-05-02T17:21:02.125Z,75.59
2019-05-02T17:23:32.871Z,75.71
2019-05-02T17:26:02.107Z,76.42
2019-05-02T17:28:31.841Z,75.48
2019-05-02T17:31:01.331Z,75.48
2019-05-02T17:33:32.318Z,77.01
2019-05-02T17:36:02.195Z,77.36
2019-05-02T17:38:31.539Z,77.97
2019-05-02T17:41:06.470Z,76.60
2019-05-02T17:43:32.948Z,76.86
2019-05-02T17:46:07.417Z,76.65
2019-05-02T17:48:34.810Z,76.73
2019-05-02T17:51:22.842Z,77.55
2019-05-02T17:53:52.403Z,76.78
2019-05-02T18:00:18.230Z,76.38
2019-05-02T18:03:52.032Z,77.52
2019-05-02T18:06:32.783Z,77.73
2019-05-02T18:08:56.455Z,77.91
2019-05-02T18:11:29.737Z,77.73
2019-05-02T18:14:18.960Z,78.44
2019-05-02T18:16:41.980Z,79.05
2019-05-02T18:22:34.655Z,77.89
2019-05-02T18:25:26.711Z,77.53
2019-05-02T18:28:02.282Z,77.30
2019-05-02T18:30:34.897Z,77.27
2019-05-02T18:33:07.093Z,77.66
2019-05-02T18:35:37.336Z,77.83
2019-05-02T18:39:42.592Z,77.96
2019-05-02T18:42:09.158Z,78.43
2019-05-02T18:44:53.053Z,77.60
2019-05-02T18:47:24.683Z,78.28
2019-05-02T18:50:04.387Z,77.53
2019-05-02T18:52:36.325Z,77.48
2019-05-02T18:54:58.646Z,77.19
2019-05-02T18:57:29.616Z,76.33
2019-05-02T18:59:59.205Z,77.13
2019-05-02T19:06:21.960Z,76.89
2019-05-02T19:08:52.213Z,78.11
2019-05-02T19:11:22.168Z,77.67
2019-05-02T19:13:54.890Z,78.08
2019-05-02T19:16:28.464Z,76.69
2019-05-02T19:18:57.432Z,77.68
2019-05-02T19:21:42.850Z,76.69
2019-05-02T19:24:13.093Z,78.71
2019-05-02T19:26:49.268Z,77.57
2019-05-02T19:29:27.727Z,77.44
2019-05-02T19:31:59.096Z,78.15
2019-05-02T19:34:28.401Z,76.93
2019-05-02T19:37:02.548Z,77.43
2019-05-02T19:39:32.082Z,77.00
2019-05-02T19:42:01.807Z,76.96
2019-05-02T19:44:33.947Z,77.66
2019-05-02T19:47:02.674Z,77.96
2019-05-02T19:49:32.885Z,77.56
2019-05-02T19:52:02.423Z,76.31
2019-05-02T19:54:39.339Z,73.54
2019-05-02T19:57:03.811Z,71.99
2019-05-02T19:59:33.146Z,71.07
2019-05-02T20:02:06.050Z,70.98
2019-05-02T20:04:37.779Z,69.27
2019-05-02T20:07:04.729Z,71.63
2019-05-02T20:09:38.047Z,69.97
2019-05-02T20:12:08.245Z,71.89
2019-05-02T20:14:38.254Z,73.45
2019-05-02T20:17:10.019Z,71.80
2019-05-02T20:19:42.208Z,73.69
2019-05-02T20:22:17.072Z,74.38
2019-05-02T20:25:05.702Z,75.23
2019-05-02T20:27:35.067Z,73.53
2019-05-02T20:30:05.083Z,74.76
2019-05-02T20:32:34.337Z,75.05
2019-05-02T20:35:03.657Z,74.41
2019-05-02T20:37:32.959Z,75.99
2019-05-02T20:40:02.748Z,76.15
2019-05-02T20:46:32.646Z,77.33
2019-05-02T20:49:32.136Z,77.05
2019-05-02T21:06:41.089Z,78.01
2019-05-02T21:13:32.761Z,77.47
2019-05-02T21:16:02.175Z,78.52
2019-05-02T21:18:34.192Z,78.41
2019-05-02T21:21:32.435Z,78.93
2019-05-02T21:24:32.761Z,78.75
2019-05-02T21:29:49.466Z,78.63
2019-05-02T21:32:33.862Z,78.53
2019-05-02T21:35:33.160Z,77.38
2019-05-02T21:38:32.722Z,77.43
2019-05-02T21:46:36.673Z,75.68
2019-05-02T21:49:29.870Z,76.19
2019-05-02T21:52:17.138Z,75.89
2019-05-02T21:57:43.042Z,76.20
2019-05-02T22:00:16.836Z,76.20
2019-05-02T22:03:32.475Z,76.31
2019-05-02T22:06:32.301Z,76.61
2019-05-02T22:09:32.345Z,76.46
2019-05-02T22:12:32.073Z,75.40
2019-05-02T22:15:02.325Z,74.80
2019-05-02T22:17:32.244Z,76.15
2019-05-02T22:20:01.958Z,75.74
2019-05-02T22:22:31.746Z,75.71
2019-05-02T22:25:32.777Z,76.05
2019-05-02T22:28:02.102Z,76.22
2019-05-02T22:30:34.100Z,75.74
2019-05-02T22:33:03.661Z,75.89
2019-05-02T22:35:32.923Z,75.54
2019-05-02T22:38:11.718Z,75.04
2019-05-02T22:40:42.035Z,75.56
2019-05-02T22:43:13.019Z,75.55
2019-05-02T22:45:42.324Z,76.53
2019-05-02T22:48:14.204Z,75.01
2019-05-02T22:50:42.659Z,75.76
2019-05-02T22:53:12.017Z,76.31
2019-05-02T22:55:43.097Z,75.50
2019-05-02T22:58:12.365Z,75.24
2019-05-02T23:00:41.738Z,74.34
2019-05-02T23:03:12.543Z,74.09
2019-05-02T23:05:42.275Z,75.31
2019-05-02T23:08:12.584Z,74.76
2019-05-02T23:10:41.919Z,74.04
2019-05-02T23:13:12.946Z,74.32
2019-05-02T23:15:42.715Z,74.92
2019-05-02T23:18:12.232Z,75.44
2019-05-02T23:20:42.171Z,75.03
2019-05-02T23:23:12.509Z,75.33
2019-05-02T23:25:55.202Z,75.49
2019-05-02T23:28:25.204Z,75.05
2019-05-02T23:30:54.443Z,74.81
2019-05-02T23:33:25.387Z,74.63
2019-05-02T23:35:54.630Z,74.54
2019-05-02T23:38:24.125Z,74.75
2019-05-02T23:40:53.396Z,75.41
2019-05-02T23:43:22.718Z,75.08
2019-05-02T23:45:51.956Z,75.79
2019-05-02T23:48:22.111Z,75.81
2019-05-02T23:50:52.099Z,76.14
2019-05-02T23:53:22.112Z,76.55
2019-05-02T23:55:51.447Z,77.34
2019-05-02T23:58:22.638Z,76.47
